Time;durP1;ratioP1;P1;durP2;ratioP2;P2;SDS_P1;SDS_P2;PMS_P1;PMS_P2;Temp;Humidity;BMP_temperature;BMP_pressure;BME280_temperature;BME280_humidity;BME280_pressure;Samples;Min_cycle;Max_cycle;Signal;HPM_P1;HPM_P2
2021/05/17 00:00:39;;;;;;;4.85;1.20;;;15.90;70.60;;;;;;5023177;28;20030;-80
2021/05/17 00:03:07;;;;;;;3.25;1.08;;;15.90;70.60;;;;;;5020113;28;20104;-76
2021/05/17 00:05:34;;;;;;;1.70;0.73;;;15.90;70.60;;;;;;5021269;28;20087;-77
2021/05/17 00:08:00;;;;;;;1.92;0.80;;;15.90;70.50;;;;;;5026253;28;20100;-79
2021/05/17 00:10:27;;;;;;;4.18;0.98;;;15.80;70.50;;;;;;5016627;28;20026;-80
2021/05/17 00:12:54;;;;;;;1.67;0.95;;;15.80;70.50;;;;;;5027317;28;20045;-78
2021/05/17 00:15:21;;;;;;;3.47;0.77;;;15.80;70.50;;;;;;5020768;28;20057;-80
2021/05/17 00:17:49;;;;;;;5.82;1.40;;;15.80;70.60;;;;;;5019350;28;20037;-81
2021/05/17 00:20:17;;;;;;;5.53;0.95;;;15.80;70.60;;;;;;5016188;28;20010;-80
2021/05/17 00:22:45;;;;;;;3.88;1.38;;;15.80;70.60;;;;;;5021708;28;20487;-69
2021/05/17 00:25:13;;;;;;;2.03;0.98;;;15.80;70.80;;;;;;5024106;28;20017;-81
2021/05/17 00:27:41;;;;;;;3.47;0.52;;;15.80;70.80;;;;;;5015536;28;20480;-82
2021/05/17 00:30:08;;;;;;;6.35;0.73;;;15.80;70.80;;;;;;5017120;28;20098;-78
2021/05/17 00:32:36;;;;;;;2.83;0.80;;;15.80;70.80;;;;;;5020592;28;20577;-80
2021/05/17 00:35:03;;;;;;;2.47;0.50;;;15.80;70.80;;;;;;5012121;28;20014;-79
2021/05/17 00:37:31;;;;;;;2.88;0.60;;;15.70;70.80;;;;;;5016633;28;20037;-78
2021/05/17 00:39:58;;;;;;;2.28;1.13;;;15.80;70.70;;;;;;5020447;28;20072;-79
2021/05/17 00:42:25;;;;;;;1.08;0.43;;;15.70;70.60;;;;;;5021462;28;20056;-78
2021/05/17 00:44:51;;;;;;;1.58;0.60;;;15.70;70.50;;;;;;5023898;28;20039;-77
2021/05/17 00:47:18;;;;;;;1.67;0.43;;;15.70;70.50;;;;;;5016828;28;20033;-78
2021/05/17 00:49:46;;;;;;;2.35;0.50;;;15.70;70.40;;;;;;5017965;28;20081;-82
2021/05/17 00:52:14;;;;;;;3.05;1.02;;;15.70;70.40;;;;;;5021735;28;20366;-80
2021/05/17 00:54:41;;;;;;;2.42;0.60;;;15.70;70.40;;;;;;5018513;28;20401;-68
2021/05/17 00:57:08;;;;;;;4.93;0.88;;;15.70;70.50;;;;;;5019027;28;20053;-76
2021/05/17 00:59:35;;;;;;;2.30;0.47;;;15.70;70.50;;;;;;5014884;28;20051;-80
2021/05/17 01:02:03;;;;;;;2.97;0.82;;;15.70;70.60;;;;;;5017843;28;20018;-67
2021/05/17 01:04:30;;;;;;;3.15;1.33;;;15.70;70.60;;;;;;5018540;28;20040;-80
2021/05/17 01:06:59;;;;;;;1.85;0.88;;;15.60;70.60;;;;;;5015056;28;20050;-74
2021/05/17 01:09:27;;;;;;;2.63;1.00;;;15.60;70.60;;;;;;5021987;28;20500;-78
2021/05/17 01:11:58;;;;;;;2.70;0.82;;;15.60;70.60;;;;;;5023084;28;20057;-70
2021/05/17 01:14:25;;;;;;;1.98;1.23;;;15.60;70.70;;;;;;5017176;28;20025;-78
2021/05/17 01:16:54;;;;;;;4.65;1.42;;;15.60;70.90;;;;;;5020031;28;20427;-79
2021/05/17 01:19:43;;;;;;;5.97;1.83;;;15.60;70.90;;;;;;5024189;28;20017;-80
2021/05/17 01:22:22;;;;;;;4.97;2.13;;;15.60;71.00;;;;;;5021564;28;20067;-81
2021/05/17 01:24:48;;;;;;;4.07;2.97;;;15.60;71.20;;;;;;5018595;28;20639;-81
2021/05/17 01:27:16;;;;;;;3.33;2.65;;;15.60;71.30;;;;;;5021525;28;20038;-81
2021/05/17 01:29:43;;;;;;;4.30;2.60;;;15.60;71.40;;;;;;5022397;28;20025;-81
2021/05/17 01:32:11;;;;;;;4.15;2.67;;;15.60;71.50;;;;;;5024620;28;20025;-81
2021/05/17 01:34:37;;;;;;;4.35;2.30;;;15.60;71.60;;;;;;5022836;28;20409;-81
2021/05/17 01:37:07;;;;;;;5.07;2.58;;;15.60;71.70;;;;;;5019771;28;20042;-81
2021/05/17 01:39:36;;;;;;;6.20;2.53;;;15.60;71.80;;;;;;5024100;28;20465;-82
2021/05/17 01:42:03;;;;;;;3.92;1.65;;;15.60;71.80;;;;;;5028806;28;20032;-81
2021/05/17 01:44:29;;;;;;;2.75;1.90;;;15.60;71.80;;;;;;5024275;28;20014;-82
2021/05/17 01:46:59;;;;;;;5.53;1.30;;;15.60;71.90;;;;;;5020629;28;20049;-79
2021/05/17 01:49:27;;;;;;;2.90;1.77;;;15.60;72.20;;;;;;5021601;28;20030;-79
2021/05/17 01:51:54;;;;;;;3.97;1.92;;;15.60;72.00;;;;;;5021664;28;20020;-79
2021/05/17 01:54:21;;;;;;;5.55;1.52;;;15.60;72.00;;;;;;5023731;28;20032;-80
2021/05/17 01:56:48;;;;;;;3.50;2.05;;;15.60;72.00;;;;;;5022043;28;20041;-80
2021/05/17 01:59:26;;;;;;;3.55;1.55;;;15.60;71.90;;;;;;5024719;28;20014;-80
2021/05/17 02:01:53;;;;;;;2.45;1.42;;;15.60;71.90;;;;;;5021833;28;20057;-80
2021/05/17 02:04:20;;;;;;;3.10;1.50;;;15.60;71.80;;;;;;5018274;28;20083;-80
2021/05/17 02:06:47;;;;;;;2.22;1.30;;;15.50;71.70;;;;;;5020946;28;20112;-80
2021/05/17 02:09:16;;;;;;;2.78;1.50;;;15.50;71.70;;;;;;5025879;28;20060;-81
2021/05/17 02:11:42;;;;;;;4.72;1.35;;;15.50;71.60;;;;;;5020042;28;20045;-76
2021/05/17 02:14:10;;;;;;;2.55;1.08;;;15.50;71.50;;;;;;5024347;28;20018;-68
2021/05/17 02:16:37;;;;;;;5.50;0.82;;;15.50;71.50;;;;;;5021138;28;20715;-75
2021/05/17 02:19:04;;;;;;;9.90;2.22;;;15.50;71.50;;;;;;5020249;28;20380;-77
2021/05/17 02:21:30;;;;;;;2.63;0.90;;;15.50;71.40;;;;;;5018268;28;20021;-76
2021/05/17 02:23:57;;;;;;;1.20;0.70;;;15.50;71.30;;;;;;5022622;28;20100;-72
2021/05/17 02:26:24;;;;;;;1.25;0.68;;;15.50;71.30;;;;;;5021424;28;20650;-77
2021/05/17 02:28:52;;;;;;;5.20;0.93;;;15.50;71.30;;;;;;5018307;28;20366;-78
2021/05/17 02:31:19;;;;;;;1.98;0.70;;;15.50;71.30;;;;;;5022799;28;20076;-77
2021/05/17 02:33:46;;;;;;;2.42;0.88;;;15.40;71.30;;;;;;5025449;28;20052;-77
2021/05/17 02:36:13;;;;;;;7.25;3.10;;;15.40;71.30;;;;;;5020976;28;20551;-69
2021/05/17 02:38:40;;;;;;;4.55;1.33;;;15.40;71.20;;;;;;5019854;28;20759;-77
2021/05/17 02:41:09;;;;;;;2.08;0.95;;;15.40;71.20;;;;;;5022430;28;20037;-75
2021/05/17 02:43:37;;;;;;;2.10;0.90;;;15.40;71.20;;;;;;5025421;28;20465;-74
2021/05/17 02:46:04;;;;;;;3.50;1.08;;;15.40;71.10;;;;;;5024546;28;20548;-74
2021/05/17 02:48:32;;;;;;;4.30;1.20;;;15.40;71.00;;;;;;5022208;28;20051;-80
2021/05/17 02:50:59;;;;;;;6.15;4.05;;;15.30;71.00;;;;;;5018390;28;20026;-69
2021/05/17 02:53:31;;;;;;;8.35;5.80;;;15.30;71.00;;;;;;5021895;28;20100;-79
2021/05/17 02:56:07;;;;;;;5.22;4.07;;;15.30;71.00;;;;;;5023364;28;20037;-78
2021/05/17 02:58:36;;;;;;;;;;;15.30;71.00;;;;;;5021371;28;20534;-80
2021/05/17 03:01:25;;;;;;;6.63;3.88;;;15.30;70.90;;;;;;5021496;28;19983;-81
2021/05/17 03:03:54;;;;;;;3.17;2.88;;;15.30;70.80;;;;;;5023445;28;20037;-79
2021/05/17 03:07:03;;;;;;;2.80;2.28;;;15.30;70.60;;;;;;5023256;28;20071;-70
2021/05/17 03:09:31;;;;;;;3.88;1.98;;;15.30;70.60;;;;;;4994411;28;20041;-78
2021/05/17 03:11:59;;;;;;;2.38;1.40;;;15.20;70.50;;;;;;5018757;28;20531;-77
2021/05/17 03:14:29;;;;;;;2.22;0.90;;;15.20;70.40;;;;;;5025725;28;20071;-77
2021/05/17 03:16:59;;;;;;;1.50;0.82;;;15.20;70.40;;;;;;5020626;28;20104;-74
2021/05/17 03:19:27;;;;;;;2.03;0.75;;;15.20;70.40;;;;;;5019381;28;20091;-78
2021/05/17 03:21:56;;;;;;;0.52;0.40;;;15.20;70.30;;;;;;5023276;28;20025;-78
2021/05/17 03:24:24;;;;;;;1.52;0.50;;;15.20;70.20;;;;;;5016408;28;20025;-79
2021/05/17 03:26:53;;;;;;;1.00;0.50;;;15.10;70.10;;;;;;5020296;28;20344;-74
2021/05/17 03:29:20;;;;;;;3.30;1.60;;;15.10;70.10;;;;;;5020561;28;20472;-74
2021/05/17 03:31:46;;;;;;;8.80;6.70;;;15.10;70.00;;;;;;5028935;28;20017;-72
2021/05/17 03:34:13;;;;;;;14.30;11.20;;;15.10;70.10;;;;;;5021456;28;20026;-72
2021/05/17 03:36:40;;;;;;;11.70;8.85;;;15.10;70.10;;;;;;5023458;28;20029;-75
2021/05/17 03:39:06;;;;;;;11.15;6.15;;;15.10;70.00;;;;;;5017456;28;20583;-75
2021/05/17 03:41:33;;;;;;;5.60;3.83;;;15.10;70.00;;;;;;5027099;28;20044;-75
2021/05/17 03:43:59;;;;;;;5.43;3.10;;;15.10;69.90;;;;;;5014385;28;20018;-76
2021/05/17 03:46:26;;;;;;;3.90;2.50;;;15.10;69.80;;;;;;5020130;28;20712;-74
2021/05/17 03:48:52;;;;;;;3.72;1.98;;;15.10;69.80;;;;;;5023398;28;20392;-71
2021/05/17 03:51:19;;;;;;;4.88;1.60;;;15.00;69.70;;;;;;5024169;28;20612;-70
2021/05/17 03:53:45;;;;;;;2.47;0.95;;;15.00;69.70;;;;;;5017183;28;20026;-72
2021/05/17 03:56:12;;;;;;;1.73;0.68;;;15.00;69.60;;;;;;5017372;28;20033;-72
2021/05/17 03:58:38;;;;;;;2.10;0.60;;;15.00;69.50;;;;;;5019397;28;20022;-73
2021/05/17 04:01:05;;;;;;;2.50;1.70;;;15.00;69.50;;;;;;5021228;28;20071;-73
2021/05/17 04:03:32;;;;;;;2.83;0.75;;;15.00;69.50;;;;;;5017436;28;20021;-71
2021/05/17 04:06:10;;;;;;;1.65;0.50;;;15.00;69.30;;;;;;5023496;28;20022;-75
2021/05/17 04:13:54;;;;;;;71.68;58.13;;;15.00;69.50;;;;;;5021256;28;20049;-78
2021/05/17 04:16:21;;;;;;;45.22;33.65;;;14.90;69.70;;;;;;5012784;28;20045;-77
2021/05/17 04:18:48;;;;;;;33.30;22.77;;;14.80;69.70;;;;;;5012742;28;20013;-72
2021/05/17 04:21:17;;;;;;;18.40;14.18;;;14.80;69.90;;;;;;5023670;28;20045;-72
2021/05/17 04:23:43;;;;;;;22.35;9.68;;;14.80;70.00;;;;;;5028298;28;20042;-77
2021/05/17 04:26:10;;;;;;;10.00;5.80;;;14.80;69.90;;;;;;5020158;28;20029;-72
2021/05/17 04:28:36;;;;;;;5.13;4.00;;;14.80;69.90;;;;;;5016596;28;20053;-72
2021/05/17 04:31:03;;;;;;;11.45;8.02;;;14.80;69.80;;;;;;5019866;28;20453;-75
2021/05/17 04:33:29;;;;;;;17.92;13.30;;;14.80;69.70;;;;;;5017745;28;20022;-77
2021/05/17 04:35:56;;;;;;;17.73;11.88;;;14.80;69.70;;;;;;5016039;28;20030;-74
2021/05/17 04:38:22;;;;;;;10.23;8.25;;;14.80;69.50;;;;;;5016801;28;20022;-76
2021/05/17 04:40:49;;;;;;;8.63;5.20;;;14.80;69.40;;;;;;5021399;28;20025;-73
2021/05/17 04:43:15;;;;;;;4.88;3.70;;;14.80;69.30;;;;;;5013474;28;20041;-73
2021/05/17 04:45:42;;;;;;;5.93;2.83;;;14.80;69.30;;;;;;5020253;28;20028;-77
2021/05/17 04:48:09;;;;;;;2.35;1.38;;;14.80;69.20;;;;;;5018408;28;20025;-74
2021/05/17 04:50:35;;;;;;;3.95;1.35;;;14.80;69.20;;;;;;5013400;28;20393;-75
2021/05/17 04:53:02;;;;;;;8.70;2.45;;;14.80;69.20;;;;;;5018748;28;20037;-66
2021/05/17 04:55:29;;;;;;;3.03;0.95;;;14.80;69.30;;;;;;5023792;28;20464;-76
2021/05/17 04:57:55;;;;;;;4.47;1.00;;;14.70;69.30;;;;;;5014589;28;20125;-75
2021/05/17 05:00:22;;;;;;;2.05;0.63;;;14.70;69.20;;;;;;5018957;28;20106;-72
2021/05/17 05:02:48;;;;;;;2.70;0.60;;;14.70;69.20;;;;;;5017955;28;20255;-76
2021/05/17 05:05:15;;;;;;;1.25;0.73;;;14.70;69.20;;;;;;5022461;28;20935;-76
2021/05/17 05:07:42;;;;;;;2.92;0.73;;;14.70;69.30;;;;;;5013193;28;20496;-75
2021/05/17 05:10:09;;;;;;;1.38;0.55;;;14.70;69.40;;;;;;5019691;28;20021;-75
2021/05/17 05:12:36;;;;;;;3.53;0.70;;;14.70;69.40;;;;;;5015898;28;20042;-75
2021/05/17 05:15:03;;;;;;;2.55;0.63;;;14.70;69.60;;;;;;5017074;28;20022;-74
2021/05/17 05:17:29;;;;;;;2.90;0.57;;;14.70;69.70;;;;;;5017653;28;20121;-75
2021/05/17 05:19:55;;;;;;;2.88;0.52;;;14.60;69.70;;;;;;5018793;28;20104;-74
2021/05/17 05:22:24;;;;;;;0.45;0.45;;;14.70;69.70;;;;;;5024944;28;20025;-76
2021/05/17 05:24:53;;;;;;;4.03;1.50;;;14.60;69.70;;;;;;5021534;28;20484;-72
2021/05/17 05:28:01;;;;;;;2.05;0.98;;;14.60;69.70;;;;;;5019863;28;20021;-75
2021/05/17 05:30:53;;;;;;;1.40;0.70;;;14.60;70.30;;;;;;5019265;28;20038;-76
2021/05/17 05:33:23;;;;;;;1.83;0.95;;;14.60;69.60;;;;;;5012982;28;20050;-76
2021/05/17 05:35:48;;;;;;;3.15;1.20;;;14.60;69.60;;;;;;5016030;28;20386;-76
2021/05/17 05:38:15;;;;;;;1.83;1.20;;;14.60;69.60;;;;;;5015840;28;20048;-67
2021/05/17 05:40:42;;;;;;;1.98;1.40;;;14.60;69.60;;;;;;5017000;28;20513;-75
2021/05/17 05:43:09;;;;;;;4.18;2.00;;;14.60;69.60;;;;;;5018789;28;20021;-66
2021/05/17 05:45:43;;;;;;;5.03;1.83;;;14.60;69.70;;;;;;5015933;28;20386;-74
2021/05/17 05:48:10;;;;;;;2.77;1.60;;;14.50;69.70;;;;;;5020899;28;20060;-67
2021/05/17 05:50:38;;;;;;;4.40;1.92;;;14.50;69.90;;;;;;5021291;28;20033;-70
2021/05/17 05:53:05;;;;;;;2.65;2.00;;;14.50;69.90;;;;;;5022182;28;20018;-70
2021/05/17 05:55:32;;;;;;;4.57;2.10;;;14.50;69.90;;;;;;5021993;28;20029;-67
2021/05/17 05:57:58;;;;;;;3.53;2.35;;;14.50;70.00;;;;;;5020952;28;20076;-69
2021/05/17 06:00:34;;;;;;;4.68;2.60;;;14.50;70.00;;;;;;5025177;28;20195;-71
2021/05/17 06:03:01;;;;;;;4.68;2.65;;;14.60;70.10;;;;;;5024944;28;20020;-68
2021/05/17 06:05:28;;;;;;;9.88;5.07;;;14.50;70.20;;;;;;5020026;28;20029;-67
2021/05/17 06:07:57;;;;;;;8.60;3.83;;;14.50;70.90;;;;;;5020320;28;20144;-70
2021/05/17 06:10:23;;;;;;;6.82;3.33;;;14.50;70.30;;;;;;5026067;28;20018;-68
2021/05/17 06:12:50;;;;;;;6.88;3.25;;;14.50;70.40;;;;;;5022621;28;20493;-66
2021/05/17 06:15:18;;;;;;;4.65;3.42;;;14.50;70.60;;;;;;5019426;28;20029;-67
2021/05/17 06:17:46;;;;;;;4.72;3.25;;;14.50;70.70;;;;;;5025811;28;20062;-68
2021/05/17 06:20:14;;;;;;;4.93;3.35;;;14.50;70.70;;;;;;5018216;28;20048;-75
2021/05/17 06:22:41;;;;;;;6.95;3.40;;;14.50;71.00;;;;;;5014777;28;20025;-73
2021/05/17 06:25:10;;;;;;;7.10;4.03;;;14.50;71.10;;;;;;5016442;28;20109;-67
2021/05/17 06:27:38;;;;;;;4.82;2.63;;;14.50;71.20;;;;;;5017824;28;20520;-66
2021/05/17 06:30:06;;;;;;;5.93;4.38;;;14.50;71.30;;;;;;5019851;28;20026;-67
2021/05/17 06:32:36;;;;;;;6.32;3.58;;;14.50;71.50;;;;;;5015762;28;20481;-71
2021/05/17 06:35:07;;;;;;;5.60;3.90;;;14.50;71.60;;;;;;5017802;28;20022;-67
2021/05/17 06:37:34;;;;;;;3.53;3.10;;;14.50;71.80;;;;;;5018619;28;20057;-67
2021/05/17 06:40:01;;;;;;;4.35;2.40;;;14.50;72.00;;;;;;5015722;28;20064;-70
2021/05/17 06:42:28;;;;;;;4.43;2.35;;;14.50;72.20;;;;;;5016693;28;20029;-71
2021/05/17 06:44:55;;;;;;;4.50;2.30;;;14.50;72.40;;;;;;5018297;28;20036;-68
2021/05/17 06:47:22;;;;;;;3.13;2.80;;;14.50;72.70;;;;;;5023461;28;20469;-67
2021/05/17 06:49:48;;;;;;;5.72;2.92;;;14.60;72.80;;;;;;5021242;28;20033;-69
2021/05/17 06:52:17;;;;;;;15.43;3.75;;;14.50;73.10;;;;;;5020697;28;20087;-70
2021/05/17 06:54:44;;;;;;;8.65;3.28;;;14.60;73.30;;;;;;5020749;28;20025;-68
2021/05/17 06:59:45;;;;;;;6.25;3.28;;;14.60;73.90;;;;;;5025462;28;20112;-67
2021/05/17 07:02:22;;;;;;;5.97;3.10;;;14.60;74.10;;;;;;5029684;28;20524;-67
2021/05/17 07:04:51;;;;;;;5.93;3.60;;;14.60;74.30;;;;;;5017351;28;20030;-69
2021/05/17 07:07:28;;;;;;;5.60;3.78;;;14.60;74.70;;;;;;5017626;28;20417;-66
2021/05/17 07:12:39;;;;;;;12.02;4.72;;;14.70;75.10;;;;;;5024753;28;20059;-71
2021/05/17 07:15:06;;;;;;;8.25;5.65;;;14.70;75.40;;;;;;5019897;28;20056;-66
2021/05/17 07:17:33;;;;;;;9.77;5.13;;;14.70;75.70;;;;;;5014513;28;20034;-69
2021/05/17 07:19:59;;;;;;;14.55;5.90;;;14.70;75.90;;;;;;5014550;28;20060;-72
2021/05/17 07:25:11;;;;;;;13.20;6.15;;;14.80;76.30;;;;;;5018468;28;20112;-68
2021/05/17 07:27:38;;;;;;;14.73;6.63;;;14.80;76.50;;;;;;5019594;28;20029;-67
2021/05/17 07:30:05;;;;;;;9.13;6.57;;;14.90;76.70;;;;;;5015519;28;20022;-70
2021/05/17 07:32:31;;;;;;;12.15;6.10;;;14.90;76.90;;;;;;5024017;28;20060;-70
2021/05/17 07:35:37;;;;;;;10.18;6.43;;;14.90;77.00;;;;;;5021235;28;20072;-72
2021/05/17 07:38:44;;;;;;;16.08;6.07;;;14.90;77.10;;;;;;5021907;28;20099;-67
2021/05/17 07:41:50;;;;;;;15.35;6.40;;;15.00;77.10;;;;;;5015829;28;20072;-68
2021/05/17 07:44:16;;;;;;;8.05;6.40;;;15.00;77.20;;;;;;5018090;28;20021;-67
2021/05/17 07:46:43;;;;;;;16.60;7.38;;;15.10;77.30;;;;;;5020543;28;20030;-68
2021/05/17 07:49:18;;;;;;;13.45;6.45;;;15.10;78.00;;;;;;5017067;28;20018;-68
2021/05/17 07:51:45;;;;;;;10.25;5.82;;;15.20;77.50;;;;;;5021911;28;20032;-68
2021/05/17 07:54:15;;;;;;;10.48;5.32;;;15.20;77.60;;;;;;5021222;28;20087;-67
2021/05/17 07:56:42;;;;;;;10.27;4.65;;;15.20;77.70;;;;;;5020885;28;20038;-68
2021/05/17 07:59:09;;;;;;;7.22;4.20;;;15.30;77.70;;;;;;5016754;28;20453;-70
2021/05/17 08:01:36;;;;;;;6.95;3.33;;;15.30;77.60;;;;;;5024835;28;20104;-68
2021/05/17 10:24:45;;;;;;;3.22;1.17;;;17.00;69.80;;;;;;5091869;27;20896;-71
2021/05/17 10:27:12;;;;;;;5.38;0.80;;;17.70;69.00;;;;;;5092969;28;20028;-71
2021/05/17 10:29:39;;;;;;;6.53;1.80;;;17.70;69.30;;;;;;5094923;28;20100;-71
2021/05/17 10:32:07;;;;;;;2.55;0.65;;;17.90;67.80;;;;;;5095958;28;20024;-71
2021/05/17 10:34:51;;;;;;;4.22;1.00;;;18.00;67.10;;;;;;5099725;28;20100;-71
2021/05/17 10:37:21;;;;;;;3.30;0.90;;;18.10;66.40;;;;;;5097604;28;20500;-72
2021/05/17 10:39:55;;;;;;;2.33;1.00;;;18.10;66.40;;;;;;5100717;28;20050;-71
2021/05/17 10:42:30;;;;;;;7.15;1.30;;;18.20;66.20;;;;;;5100563;28;20028;-71
2021/05/17 10:48:16;;;;;;;1.70;0.70;;;18.30;66.10;;;;;;5091228;28;20057;-71
2021/05/17 10:50:45;;;;;;;1.77;0.93;;;18.40;65.60;;;;;;5099277;28;20089;-71
2021/05/17 10:53:42;;;;;;;2.95;1.38;;;18.40;65.50;;;;;;5098397;28;20031;-72
2021/05/17 10:56:15;;;;;;;3.55;0.57;;;18.50;65.20;;;;;;5091490;28;20036;-72
2021/05/17 11:02:08;;;;;;;4.88;1.60;;;18.60;64.70;;;;;;5090705;28;20496;-71
2021/05/17 11:04:36;;;;;;;1.00;0.70;;;18.70;64.10;;;;;;5095228;28;20020;-71
2021/05/17 11:07:26;;;;;;;2.35;1.15;;;18.70;63.60;;;;;;5094853;28;20436;-71
2021/05/17 11:10:17;;;;;;;1.88;0.50;;;18.80;63.80;;;;;;5090359;28;20554;-71
2021/05/17 11:13:12;;;;;;;6.63;3.35;;;18.90;63.70;;;;;;5086839;28;20044;-72
2021/05/17 11:15:42;;;;;;;3.40;0.98;;;18.90;63.20;;;;;;5096295;28;20047;-71
2021/05/17 11:18:09;;;;;;;1.75;0.77;;;19.00;62.90;;;;;;5096246;28;20052;-71
2021/05/17 11:20:46;;;;;;;1.48;0.70;;;19.00;63.10;;;;;;5093854;28;20020;-71
2021/05/17 11:23:25;;;;;;;16.48;2.45;;;19.00;62.80;;;;;;5095266;28;20475;-71
2021/05/17 11:28:36;;;;;;;6.25;1.25;;;19.10;62.70;;;;;;5077639;28;20097;-72
2021/05/17 11:31:14;;;;;;;2.75;0.90;;;19.10;62.70;;;;;;5077478;28;20070;-71
2021/05/17 11:33:51;;;;;;;4.10;0.90;;;19.10;62.80;;;;;;5084743;28;20031;-71
2021/05/17 11:36:50;;;;;;;4.25;1.10;;;19.10;62.90;;;;;;5076497;28;20033;-72
2021/05/17 11:39:57;;;;;;;4.55;1.05;;;19.20;63.00;;;;;;5079523;28;20466;-72
2021/05/17 11:43:03;;;;;;;2.70;0.60;;;19.20;62.40;;;;;;5078085;28;20071;-71
2021/05/17 11:46:09;;;;;;;2.25;1.15;;;19.20;62.50;;;;;;5077518;28;20031;-72
2021/05/17 11:49:15;;;;;;;2.30;1.02;;;19.30;62.40;;;;;;5079866;28;20024;-71
2021/05/17 11:52:24;;;;;;;4.78;1.30;;;19.30;62.40;;;;;;5057736;28;20024;-72
2021/05/17 11:55:30;;;;;;;4.55;1.25;;;19.30;62.40;;;;;;5075898;28;20037;-71
2021/05/17 11:58:42;;;;;;;5.00;1.15;;;19.30;61.90;;;;;;5079527;28;20027;-71
2021/05/17 12:01:54;;;;;;;3.67;2.28;;;19.30;61.80;;;;;;5076873;28;20427;-72
2021/05/17 12:05:05;;;;;;;5.32;1.65;;;19.40;61.80;;;;;;5078836;28;20032;-70
2021/05/17 12:08:14;;;;;;;3.05;1.20;;;19.40;61.40;;;;;;5079462;28;20020;-70
2021/05/17 12:11:23;;;;;;;2.63;1.13;;;19.40;61.20;;;;;;5078251;28;20496;-71
2021/05/17 12:14:29;;;;;;;0.77;0.75;;;19.40;60.70;;;;;;5078325;28;20390;-70
2021/05/17 12:17:38;;;;;;;3.30;1.30;;;19.40;61.20;;;;;;5077406;28;20016;-70
2021/05/17 12:20:48;;;;;;;2.97;1.58;;;19.40;61.30;;;;;;5078844;28;20085;-70
2021/05/17 12:24:06;;;;;;;4.40;1.02;;;19.40;61.20;;;;;;5077433;28;20044;-70
2021/05/17 12:27:14;;;;;;;3.67;0.93;;;19.50;61.30;;;;;;5076997;28;20023;-70
2021/05/17 12:30:12;;;;;;;1.38;0.80;;;19.50;61.00;;;;;;5078642;28;20037;-73
2021/05/17 12:33:22;;;;;;;2.63;1.02;;;19.50;60.10;;;;;;5074739;28;20036;-71
2021/05/17 12:36:28;;;;;;;1.50;0.90;;;19.50;60.20;;;;;;5076273;28;20394;-71
2021/05/17 12:39:34;;;;;;;2.38;0.93;;;19.60;60.20;;;;;;5077980;28;20093;-71
2021/05/17 12:42:41;;;;;;;2.50;0.80;;;19.60;60.50;;;;;;5080012;28;20032;-71
2021/05/17 12:45:50;;;;;;;9.30;1.00;;;19.60;60.30;;;;;;5073340;28;20081;-70
2021/05/17 12:48:59;;;;;;;4.63;1.35;;;19.60;60.60;;;;;;5080305;28;20059;-70
2021/05/17 12:52:05;;;;;;;4.85;1.80;;;19.60;60.70;;;;;;5074658;28;20035;-70
2021/05/17 12:55:10;;;;;;;2.38;0.80;;;19.70;60.60;;;;;;5073367;28;20108;-70
2021/05/17 12:58:05;;;;;;;2.40;0.73;;;19.70;60.80;;;;;;5070879;28;20476;-70
2021/05/17 13:01:02;;;;;;;7.85;1.63;;;19.70;60.10;;;;;;5078792;28;20029;-70
2021/05/17 13:03:28;;;;;;;5.72;1.00;;;19.70;60.00;;;;;;5080762;28;20453;-70
2021/05/17 13:06:38;;;;;;;2.13;0.63;;;19.70;60.00;;;;;;5079777;28;20015;-70
2021/05/17 13:09:48;;;;;;;2.13;0.93;;;19.70;59.90;;;;;;5087550;28;20081;-70
2021/05/17 13:13:09;;;;;;;2.10;0.57;;;19.60;59.20;;;;;;5080286;28;20038;-70
2021/05/17 13:16:21;;;;;;;3.40;0.90;;;19.70;58.50;;;;;;5077938;28;20034;-70
2021/05/17 13:31:34;;;;;;;1.30;0.68;;;19.60;57.60;;;;;;5079619;28;20043;-70
2021/05/17 13:34:40;;;;;;;1.80;1.30;;;19.60;57.80;;;;;;5082028;28;20059;-70
2021/05/17 13:37:06;;;;;;;4.82;0.90;;;19.60;57.90;;;;;;5076026;28;20368;-70
2021/05/17 13:39:33;;;;;;;1.83;0.77;;;19.60;57.80;;;;;;5084632;28;20082;-70
2021/05/17 13:41:59;;;;;;;2.60;0.85;;;19.60;57.50;;;;;;5083340;28;20739;-70
2021/05/17 13:44:26;;;;;;;1.73;0.65;;;19.60;57.90;;;;;;5072665;28;20400;-71
2021/05/17 13:46:53;;;;;;;3.63;1.00;;;19.60;57.90;;;;;;5079753;28;20093;-70
2021/05/17 13:49:21;;;;;;;4.00;0.93;;;19.50;57.90;;;;;;5075791;28;20020;-70
2021/05/17 13:51:48;;;;;;;3.53;0.70;;;19.50;58.10;;;;;;5075867;28;20104;-70
2021/05/17 13:54:18;;;;;;;1.67;0.65;;;19.50;58.10;;;;;;5071268;28;20044;-71
2021/05/17 13:56:47;;;;;;;3.70;0.65;;;19.50;58.00;;;;;;5087387;28;20114;-70
2021/05/17 13:59:14;;;;;;;1.40;0.50;;;19.50;58.00;;;;;;5057596;28;20032;-71
2021/05/17 14:01:40;;;;;;;1.00;0.60;;;19.40;58.20;;;;;;5077271;28;20074;-70
2021/05/17 14:04:07;;;;;;;1.67;0.77;;;19.40;58.70;;;;;;5075910;28;20433;-71
2021/05/17 14:06:35;;;;;;;2.65;0.88;;;19.40;58.90;;;;;;5076273;28;20012;-70
2021/05/17 14:09:05;;;;;;;3.00;0.70;;;19.30;58.80;;;;;;5080472;28;20498;-70
2021/05/17 14:11:32;;;;;;;5.03;0.90;;;19.40;59.20;;;;;;5076090;28;20016;-70
2021/05/17 14:13:59;;;;;;;3.22;1.00;;;19.30;59.20;;;;;;5080567;28;20109;-72
2021/05/17 14:16:25;;;;;;;3.92;1.27;;;19.30;59.40;;;;;;5077161;28;20028;-73
2021/05/17 14:18:52;;;;;;;2.63;0.50;;;19.30;60.00;;;;;;5076213;28;20547;-70
2021/05/17 14:21:18;;;;;;;5.70;1.75;;;19.20;60.00;;;;;;5060729;28;20021;-74
2021/05/17 14:23:45;;;;;;;3.55;1.05;;;19.20;60.30;;;;;;5080925;28;20035;-72
2021/05/17 14:26:11;;;;;;;2.13;0.77;;;19.20;60.90;;;;;;5080420;28;20707;-70
2021/05/17 14:28:44;;;;;;;3.55;1.20;;;19.20;61.40;;;;;;5077458;28;20017;-72
2021/05/17 14:31:13;;;;;;;4.07;1.40;;;19.10;61.70;;;;;;5077735;28;20104;-72
2021/05/17 14:33:40;;;;;;;9.18;1.73;;;19.10;61.80;;;;;;5081426;28;20032;-71
2021/05/17 14:36:07;;;;;;;6.78;1.13;;;19.00;61.60;;;;;;5081879;28;20028;-70
2021/05/17 14:38:34;;;;;;;4.97;3.50;;;19.00;61.70;;;;;;5079615;28;20025;-70
2021/05/17 14:41:02;;;;;;;4.20;1.92;;;19.00;61.90;;;;;;5070070;28;20035;-70
2021/05/17 14:43:30;;;;;;;8.55;2.20;;;18.90;62.10;;;;;;5082137;28;20016;-71
2021/05/17 14:45:58;;;;;;;7.93;3.08;;;18.90;62.30;;;;;;5079018;28;20012;-69
2021/05/17 14:48:25;;;;;;;6.28;1.33;;;18.90;62.40;;;;;;5085722;28;20016;-71
2021/05/17 14:50:53;;;;;;;4.72;1.00;;;18.90;62.00;;;;;;5080436;28;20052;-70
2021/05/17 14:53:20;;;;;;;2.55;0.85;;;18.80;61.60;;;;;;5088608;28;20028;-70
2021/05/17 14:55:47;;;;;;;4.75;1.02;;;18.80;61.30;;;;;;5081287;28;20510;-74
2021/05/17 14:58:15;;;;;;;3.28;0.70;;;18.80;61.20;;;;;;5079861;28;20036;-69
2021/05/17 15:00:43;;;;;;;5.38;1.35;;;18.70;61.30;;;;;;5077652;28;20035;-70
2021/05/17 15:03:10;;;;;;;5.03;1.48;;;18.70;61.40;;;;;;5083651;28;20021;-70
2021/05/17 15:05:37;;;;;;;1.83;0.57;;;18.60;61.60;;;;;;5081978;28;20048;-69
2021/05/17 15:08:03;;;;;;;4.57;0.90;;;18.60;61.60;;;;;;5086465;28;20024;-68
2021/05/17 15:10:30;;;;;;;7.57;1.10;;;18.60;61.80;;;;;;5080997;28;20039;-68
2021/05/17 15:12:56;;;;;;;1.42;1.13;;;18.60;61.90;;;;;;5084426;28;20422;-68
2021/05/17 15:15:25;;;;;;;2.50;0.85;;;18.60;61.80;;;;;;5076023;28;20016;-74
2021/05/17 15:17:55;;;;;;;2.33;0.98;;;18.50;61.50;;;;;;5079487;28;20055;-69
2021/05/17 15:20:22;;;;;;;2.72;1.30;;;18.50;61.70;;;;;;5081029;28;20521;-70
2021/05/17 15:22:50;;;;;;;3.72;1.38;;;18.50;61.80;;;;;;5088839;28;20134;-70
2021/05/17 15:25:18;;;;;;;2.45;1.35;;;18.40;62.00;;;;;;5080511;28;20117;-72
2021/05/17 15:27:47;;;;;;;4.63;1.38;;;18.50;62.40;;;;;;5075289;28;20107;-71
2021/05/17 15:30:14;;;;;;;2.65;1.02;;;18.40;62.50;;;;;;5078732;28;20055;-69
2021/05/17 15:32:41;;;;;;;3.70;1.45;;;18.40;62.70;;;;;;5078695;28;20039;-73
2021/05/17 15:35:09;;;;;;;2.05;1.30;;;18.40;62.90;;;;;;5086287;28;20145;-70
2021/05/17 15:37:36;;;;;;;4.68;1.85;;;18.40;63.00;;;;;;5076938;28;20024;-71
2021/05/17 15:40:09;;;;;;;4.03;1.73;;;18.40;62.80;;;;;;5078342;28;20100;-70
2021/05/17 15:43:15;;;;;;;2.08;1.60;;;18.40;62.70;;;;;;5086353;28;20375;-71
2021/05/17 15:46:21;;;;;;;5.82;2.30;;;18.30;62.80;;;;;;5078526;28;20028;-70
2021/05/17 15:48:48;;;;;;;4.65;2.30;;;18.30;62.80;;;;;;5081309;28;20028;-70
2021/05/17 15:51:16;;;;;;;5.32;2.05;;;18.30;62.90;;;;;;5080487;28;20108;-71
2021/05/17 15:53:43;;;;;;;6.90;2.67;;;18.20;62.80;;;;;;5080444;28;20628;-70
2021/05/17 15:56:10;;;;;;;9.50;2.08;;;18.20;62.80;;;;;;5086762;28;20028;-70
2021/05/17 15:58:40;;;;;;;4.07;1.63;;;18.20;62.80;;;;;;5081584;28;20383;-68
2021/05/17 16:01:11;;;;;;;3.10;1.77;;;18.20;62.90;;;;;;5078351;28;20040;-70
2021/05/17 16:03:39;;;;;;;4.63;1.70;;;18.20;62.90;;;;;;5082269;28;20029;-71
2021/05/17 18:25:50;;;;;;;18.42;12.63;;;16.60;66.40;;;;;;5082705;27;21011;-70
2021/05/17 18:28:16;;;;;;;27.98;19.98;;;16.70;66.70;;;;;;5074985;28;20052;-72
2021/05/17 18:30:45;;;;;;;32.33;21.73;;;16.70;66.60;;;;;;5072301;28;20074;-72
2021/05/17 18:33:20;;;;;;;31.55;20.67;;;16.80;66.50;;;;;;5078565;28;20611;-73